Time;durP1;ratioP1;P1;durP2;ratioP2;P2;SDS_P1;SDS_P2;PMS_P1;PMS_P2;Temp;Humidity;BMP_temperature;BMP_pressure;BME280_temperature;BME280_humidity;BME280_pressure;Samples;Min_cycle;Max_cycle;Signal;HPM_P1;HPM_P2
2023/01/18 00:01:46;;;;;;;16.83;12.55;;;;;;;;;;5083505;28;20211;-83
2023/01/18 00:04:13;;;;;;;13.80;10.65;;;;;;;;;;5082477;28;20202;-84
2023/01/18 00:06:42;;;;;;;18.48;11.77;;;;;;;;;;5084120;28;20290;-84
2023/01/18 00:09:09;;;;;;;20.77;13.82;;;;;;;;;;5094129;28;20294;-82
2023/01/18 00:11:36;;;;;;;21.75;13.35;;;;;;;;;;5094807;28;20289;-82
2023/01/18 00:14:03;;;;;;;16.55;12.27;;;;;;;;;;5084391;28;20226;-83
2023/01/18 00:16:31;;;;;;;15.90;11.43;;;;;;;;;;5085433;28;20223;-82
2023/01/18 00:18:59;;;;;;;14.52;10.60;;;0.40;1.00;;;;;;5091855;28;20225;-82
2023/01/18 00:21:27;;;;;;;16.63;10.52;;;0.40;1.00;;;;;;5082402;28;20568;-82
2023/01/18 00:23:56;;;;;;;15.18;12.05;;;0.40;1.00;;;;;;5082838;28;20213;-83
2023/01/18 00:26:23;;;;;;;24.38;11.38;;;0.70;73.90;;;;;;5084280;28;20337;-82
2023/01/18 00:28:50;;;;;;;19.77;12.07;;;;;;;;;;5084379;28;20684;-82
2023/01/18 00:31:19;;;;;;;19.65;12.57;;;0.20;1.00;;;;;;5083086;28;20206;-82
2023/01/18 00:33:47;;;;;;;16.08;12.25;;;0.30;1.00;;;;;;5082207;28;20283;-82
2023/01/18 00:36:15;;;;;;;20.38;11.90;;;0.30;1.00;;;;;;5082267;28;20198;-82
2023/01/18 00:38:42;;;;;;;16.35;11.25;;;;;;;;;;5081581;28;20612;-82
2023/01/18 00:41:11;;;;;;;18.30;12.20;;;0.20;1.00;;;;;;5081234;28;20206;-83
2023/01/18 00:43:40;;;;;;;30.17;18.63;;;;;;;;;;5082027;28;20270;-82
2023/01/18 00:46:08;;;;;;;28.75;20.60;;;0.60;99.90;;;;;;5079212;28;20257;-82
2023/01/18 00:48:35;;;;;;;22.70;14.43;;;;;;;;;;5078184;28;20222;-83
2023/01/18 00:51:02;;;;;;;24.42;16.40;;;0.30;1.00;;;;;;5080214;28;20194;-83
2023/01/18 00:53:29;;;;;;;20.80;15.30;;;0.30;99.90;;;;;;5090427;28;20240;-83
2023/01/18 00:55:56;;;;;;;18.15;12.27;;;;;;;;;;5096045;28;20286;-80
2023/01/18 00:58:25;;;;;;;17.85;12.40;;;;;;;;;;5097355;28;20246;-84
2023/01/18 01:00:53;;;;;;;17.98;12.82;;;0.30;1.00;;;;;;5097618;28;20210;-82
2023/01/18 01:03:20;;;;;;;13.90;12.23;;;;;;;;;;5097428;28;20207;-82
2023/01/18 01:08:32;;;;;;;14.95;11.30;;;;;;;;;;5098106;28;20262;-81
2023/01/18 01:11:07;;;;;;;14.10;10.98;;;0.40;1.00;;;;;;5093741;28;20206;-82
2023/01/18 01:27:21;;;;;;;18.38;12.30;;;;;;;;;;5082542;28;20237;-81
2023/01/18 01:29:51;;;;;;;18.77;13.60;;;0.70;1.00;;;;;;5093545;28;20270;-82
2023/01/18 01:32:18;;;;;;;23.45;13.63;;;;;;;;;;5093573;28;20191;-82
2023/01/18 01:34:45;;;;;;;24.35;12.30;;;0.60;69.60;;;;;;5091804;28;20265;-81
2023/01/18 01:37:12;;;;;;;16.15;12.45;;;0.50;74.40;;;;;;5089912;28;20652;-82
2023/01/18 01:39:39;;;;;;;21.02;12.38;;;;;;;;;;5086109;28;20201;-82
2023/01/18 01:42:06;;;;;;;15.23;11.65;;;;;;;;;;5090975;28;20233;-81
2023/01/18 01:44:50;;;;;;;16.05;10.88;;;0.50;1.00;;;;;;5098761;28;20193;-81
2023/01/18 01:47:34;;;;;;;18.33;11.80;;;0.50;1.00;;;;;;5092330;28;20265;-82
2023/01/18 01:50:07;;;;;;;16.45;11.85;;;0.90;1.00;;;;;;5084819;28;20218;-82
2023/01/18 01:52:37;;;;;;;16.50;11.82;;;0.30;85.80;;;;;;5090796;28;20195;-81
2023/01/18 01:55:10;;;;;;;19.27;12.10;;;0.60;66.00;;;;;;5101145;28;20230;-81
2023/01/18 01:57:39;;;;;;;15.23;12.75;;;0.40;42.90;;;;;;5101125;28;20222;-81
2023/01/18 02:00:13;;;;;;;16.23;12.18;;;0.40;1.00;;;;;;5100922;28;20341;-81
2023/01/18 02:02:42;;;;;;;12.25;10.50;;;-0.20;1.00;;;;;;5100798;28;20175;-81
2023/01/18 02:05:12;;;;;;;11.82;9.80;;;0.60;26.40;;;;;;5100919;28;20199;-81
2023/01/18 02:07:39;;;;;;;18.90;11.15;;;0.10;33.60;;;;;;5093651;28;20238;-82
2023/01/18 02:10:08;;;;;;;12.88;10.93;;;0.20;20.80;;;;;;5084981;28;20218;-82
2023/01/18 02:12:35;;;;;;;14.02;10.13;;;0.50;20.60;;;;;;5084881;28;20234;-82
2023/01/18 02:15:03;;;;;;;13.25;9.50;;;0.30;1.00;;;;;;5090814;28;20724;-82
2023/01/18 02:17:47;;;;;;;13.05;10.68;;;0.40;1.00;;;;;;5093183;28;20583;-82
2023/01/18 02:20:59;;;;;;;16.08;10.50;;;0.30;1.00;;;;;;5088376;28;20268;-82
2023/01/18 02:23:58;;;;;;;15.20;11.55;;;0.20;1.00;;;;;;5049338;28;20212;-82
2023/01/18 02:26:58;;;;;;;14.20;11.32;;;0.40;4.50;;;;;;5086100;28;20309;-83
2023/01/18 02:29:43;;;;;;;12.85;10.45;;;0.30;1.00;;;;;;5085352;28;20260;-82
2023/01/18 02:32:20;;;;;;;14.40;10.43;;;0.40;1.00;;;;;;5084539;28;20621;-82
2023/01/18 02:34:49;;;;;;;15.15;10.52;;;0.40;1.00;;;;;;5084456;28;20255;-82
2023/01/18 02:37:26;;;;;;;18.13;11.35;;;0.40;1.00;;;;;;5084662;28;20226;-83
2023/01/18 02:40:05;;;;;;;13.00;10.02;;;0.40;1.00;;;;;;5094311;28;20190;-81
2023/01/18 02:48:31;;;;;;;18.98;11.25;;;0.40;1.00;;;;;;5019180;28;20224;-83
2023/01/18 02:50:59;;;;;;;15.35;10.45;;;;;;;;;;5019087;28;20297;-83
2023/01/18 02:53:26;;;;;;;13.18;9.77;;;0.60;1.00;;;;;;5030525;28;20268;-84
2023/01/18 02:55:59;;;;;;;12.82;9.63;;;0.90;43.50;;;;;;5040162;28;20224;-83
2023/01/18 02:58:31;;;;;;;14.45;8.70;;;0.50;1.00;;;;;;5040130;28;20206;-83
2023/01/18 03:01:03;;;;;;;11.85;9.50;;;0.60;1.00;;;;;;5039747;28;20665;-82
2023/01/18 03:03:30;;;;;;;9.70;8.75;;;0.60;1.00;;;;;;5040284;28;20199;-82
2023/01/18 03:06:00;;;;;;;15.38;8.55;;;0.60;1.00;;;;;;5039946;28;20220;-83
2023/01/18 03:08:34;;;;;;;9.95;8.68;;;1.50;1.00;;;;;;5038977;28;20215;-82
2023/01/18 03:11:03;;;;;;;10.30;8.18;;;0.60;1.00;;;;;;5041288;28;20242;-82
2023/01/18 03:13:42;;;;;;;10.15;9.13;;;0.70;1.00;;;;;;5041730;28;20204;-82
2023/01/18 03:16:18;;;;;;;14.88;9.90;;;0.60;1.00;;;;;;5039878;28;20228;-82
2023/01/18 03:19:00;;;;;;;11.48;8.00;;;0.60;1.00;;;;;;5041269;28;20255;-82
2023/01/18 03:21:34;;;;;;;9.85;7.93;;;0.80;1.00;;;;;;5040275;28;20246;-83
2023/01/18 03:24:04;;;;;;;11.65;8.57;;;0.70;1.00;;;;;;5039838;28;20651;-82
2023/01/18 03:26:35;;;;;;;8.75;7.80;;;0.90;1.00;;;;;;5045819;28;20210;-82
2023/01/18 03:34:41;;;;;;;12.98;8.75;;;0.70;1.00;;;;;;5039291;28;20611;-82
2023/01/18 03:37:12;;;;;;;9.07;8.07;;;0.80;1.00;;;;;;5038891;28;20586;-82
2023/01/18 03:39:42;;;;;;;11.07;8.00;;;0.70;1.00;;;;;;5039192;28;20216;-82
2023/01/18 03:42:14;;;;;;;11.35;8.77;;;0.80;1.00;;;;;;5040855;28;20188;-82
2023/01/18 03:44:47;;;;;;;9.50;7.25;;;-0.10;1.00;;;;;;5040713;28;20194;-83
2023/01/18 03:47:15;;;;;;;10.55;8.30;;;0.70;1.00;;;;;;5038711;28;20227;-82
2023/01/18 03:49:42;;;;;;;9.77;7.93;;;0.80;1.00;;;;;;5040311;28;20224;-82
2023/01/18 03:52:16;;;;;;;11.30;8.63;;;0.70;1.00;;;;;;5041906;28;20218;-83
2023/01/18 03:54:55;;;;;;;11.60;8.50;;;0.70;1.00;;;;;;5040937;28;20188;-83
2023/01/18 03:57:28;;;;;;;10.00;8.88;;;0.30;1.00;;;;;;5039706;28;20227;-83
2023/01/18 03:59:56;;;;;;;10.00;9.00;;;0.60;1.00;;;;;;5040291;28;20280;-83
2023/01/18 04:02:26;;;;;;;9.02;7.65;;;0.90;1.00;;;;;;5040375;28;20204;-83
2023/01/18 04:04:56;;;;;;;10.85;7.90;;;0.60;1.00;;;;;;5040859;28;20211;-82
2023/01/18 04:07:24;;;;;;;10.07;8.50;;;;;;;;;;5039726;28;20482;-82
2023/01/18 04:09:51;;;;;;;8.95;7.35;;;;;;;;;;5039277;28;20220;-83
2023/01/18 04:12:18;;;;;;;9.57;8.10;;;0.80;1.00;;;;;;5040092;28;20242;-82
2023/01/18 04:14:45;;;;;;;13.57;7.80;;;;;;;;;;5040013;28;20713;-82
2023/01/18 04:17:12;;;;;;;10.52;8.50;;;1.10;1.00;;;;;;5039347;28;20219;-82
2023/01/18 04:19:40;;;;;;;13.35;8.52;;;1.20;1.00;;;;;;5044590;28;20267;-82
2023/01/18 04:22:07;;;;;;;9.05;8.10;;;0.90;1.00;;;;;;5041002;28;20299;-82
2023/01/18 04:24:34;;;;;;;15.38;8.13;;;0.60;1.00;;;;;;5039239;28;20447;-82
2023/01/18 04:27:01;;;;;;;10.55;8.32;;;0.70;1.00;;;;;;5052642;28;20243;-81
2023/01/18 04:29:28;;;;;;;9.82;6.88;;;0.60;1.00;;;;;;5057929;28;20207;-81
2023/01/18 04:31:55;;;;;;;9.38;8.07;;;0.60;1.00;;;;;;5058281;28;20263;-81
2023/01/18 04:34:22;;;;;;;10.75;7.50;;;1.10;1.00;;;;;;5058334;28;20244;-81
2023/01/18 04:36:51;;;;;;;9.52;6.63;;;0.80;1.00;;;;;;5058330;28;20234;-82
2023/01/18 04:39:18;;;;;;;8.27;6.85;;;1.10;1.00;;;;;;5057963;28;20219;-81
2023/01/18 04:41:45;;;;;;;7.68;6.88;;;1.10;1.00;;;;;;5058447;28;20210;-81
2023/01/18 04:44:12;;;;;;;11.32;7.40;;;;;;;;;;5058379;28;20251;-82
2023/01/18 04:46:39;;;;;;;9.85;7.93;;;0.80;1.00;;;;;;5058097;28;20238;-82
2023/01/18 04:49:07;;;;;;;16.25;8.15;;;1.10;1.00;;;;;;5056602;28;20310;-82
2023/01/18 04:51:33;;;;;;;14.02;7.30;;;0.80;1.00;;;;;;5056497;28;20214;-82
2023/01/18 04:54:04;;;;;;;9.85;8.07;;;1.20;1.00;;;;;;5057854;28;20188;-81
2023/01/18 04:56:31;;;;;;;10.85;7.43;;;;;;;;;;5057206;28;20425;-82
2023/01/18 04:58:58;;;;;;;8.40;7.45;;;1.10;1.00;;;;;;5058251;28;20222;-82
2023/01/18 05:01:25;;;;;;;13.65;7.55;;;1.00;99.90;;;;;;5058094;28;20210;-82
2023/01/18 05:03:53;;;;;;;7.97;6.60;;;0.90;99.90;;;;;;5058274;28;20184;-81
2023/01/18 05:06:20;;;;;;;8.52;6.82;;;;;;;;;;5057999;28;20263;-82
2023/01/18 05:08:47;;;;;;;10.80;7.18;;;;;;;;;;5047958;28;20275;-83
2023/01/18 05:11:17;;;;;;;8.55;6.00;;;1.30;1.00;;;;;;5047985;28;20214;-83
2023/01/18 05:13:45;;;;;;;11.10;7.65;;;1.30;99.90;;;;;;5048385;28;20291;-83
2023/01/18 05:16:14;;;;;;;10.00;7.47;;;1.30;99.90;;;;;;5047396;28;20223;-82
2023/01/18 05:18:42;;;;;;;8.10;7.30;;;;;;;;;;5049737;28;20276;-83
2023/01/18 05:21:09;;;;;;;9.88;6.55;;;;;;;;;;5056058;28;20211;-82
2023/01/18 05:23:37;;;;;;;9.52;6.45;;;;;;;;;;5053941;28;20242;-82
2023/01/18 05:26:12;;;;;;;10.48;6.38;;;1.40;1.00;;;;;;5050810;28;20293;-83
2023/01/18 05:28:40;;;;;;;10.32;8.13;;;1.30;99.90;;;;;;5049233;28;20192;-83
2023/01/18 05:31:08;;;;;;;8.15;6.15;;;1.50;99.90;;;;;;5049891;28;20223;-83
2023/01/18 05:33:35;;;;;;;10.50;6.75;;;1.50;99.90;;;;;;5049027;28;20208;-83
2023/01/18 05:36:02;;;;;;;8.40;6.30;;;;;;;;;;5048541;28;20228;-82
2023/01/18 05:38:29;;;;;;;8.35;6.32;;;;;;;;;;5049004;28;20227;-83
2023/01/18 05:40:56;;;;;;;10.75;6.80;;;1.70;99.90;;;;;;5050140;28;20264;-83
2023/01/18 05:43:25;;;;;;;7.95;5.80;;;1.50;99.90;;;;;;5049470;28;20704;-84
2023/01/18 05:45:53;;;;;;;6.45;5.45;;;;;;;;;;5049896;28;20232;-83
2023/01/18 05:48:21;;;;;;;6.00;5.20;;;1.70;99.90;;;;;;5048618;28;20207;-83
2023/01/18 05:50:48;;;;;;;6.07;4.78;;;1.80;24.70;;;;;;5048520;28;20282;-82
2023/01/18 05:53:17;;;;;;;9.85;5.35;;;1.50;1.00;;;;;;5047526;28;20200;-83
2023/01/18 05:55:52;;;;;;;6.95;4.35;;;1.90;99.90;;;;;;5047534;28;20234;-83
2023/01/18 05:58:19;;;;;;;9.48;4.95;;;;;;;;;;5045570;28;20191;-83
2023/01/18 06:00:46;;;;;;;6.30;4.40;;;0.40;1.00;;;;;;5045748;28;20210;-83
2023/01/18 06:03:14;;;;;;;7.80;4.53;;;0.70;92.80;;;;;;5047034;28;20204;-84
2023/01/18 06:05:41;;;;;;;5.10;4.55;;;;;;;;;;5052739;28;20651;-83
2023/01/18 06:08:08;;;;;;;8.00;5.40;;;1.50;99.90;;;;;;5054122;28;20275;-84
2023/01/18 06:10:35;;;;;;;6.30;4.70;;;;;;;;;;5052272;28;20291;-83
2023/01/18 06:13:02;;;;;;;9.80;4.57;;;2.10;1.00;;;;;;5050974;28;20208;-83
2023/01/18 06:15:29;;;;;;;8.43;4.35;;;;;;;;;;5057647;28;20247;-83
2023/01/18 06:17:56;;;;;;;6.80;4.20;;;1.70;1.00;;;;;;5058697;28;20204;-83
2023/01/18 06:20:29;;;;;;;8.88;4.57;;;1.90;1.00;;;;;;5058402;28;20210;-83
2023/01/18 06:22:56;;;;;;;4.20;3.80;;;2.10;1.00;;;;;;5055629;28;20188;-83
2023/01/18 06:25:23;;;;;;;7.03;4.53;;;;;;;;;;5053868;28;20214;-84
2023/01/18 06:27:50;;;;;;;6.57;5.97;;;2.00;1.00;;;;;;5049728;28;20696;-84
2023/01/18 06:30:18;;;;;;;6.32;4.38;;;2.00;99.90;;;;;;5050149;28;20227;-83
2023/01/18 06:32:45;;;;;;;6.70;3.80;;;;;;;;;;5048849;28;20210;-83
2023/01/18 06:35:12;;;;;;;5.60;3.90;;;2.30;1.00;;;;;;5049282;28;20208;-83
2023/01/18 06:37:41;;;;;;;4.20;3.75;;;1.70;1.00;;;;;;5051035;28;20729;-82
2023/01/18 06:40:09;;;;;;;6.30;3.53;;;2.00;99.90;;;;;;5050509;28;20270;-83
2023/01/18 06:42:36;;;;;;;4.25;3.85;;;;;;;;;;5051070;28;20267;-83
2023/01/18 06:45:03;;;;;;;4.60;3.72;;;;;;;;;;5051170;28;20271;-83
2023/01/18 06:47:30;;;;;;;3.45;3.15;;;;;;;;;;5047049;28;20624;-83
2023/01/18 06:49:57;;;;;;;6.25;4.57;;;;;;;;;;5052039;28;20235;-82
2023/01/18 06:52:24;;;;;;;4.72;4.20;;;1.60;1.00;;;;;;5060489;28;20187;-81
2023/01/18 06:54:53;;;;;;;6.40;4.45;;;1.80;99.90;;;;;;5060375;28;20215;-82
2023/01/18 06:57:20;;;;;;;10.45;4.82;;;;;;;;;;5056563;28;20255;-82
2023/01/18 06:59:47;;;;;;;7.65;5.70;;;;;;;;;;5040768;28;20200;-83
2023/01/18 07:02:15;;;;;;;8.02;4.68;;;1.90;63.20;;;;;;5041338;28;20227;-83
2023/01/18 07:04:44;;;;;;;6.43;5.50;;;1.90;99.90;;;;;;5040251;28;20219;-83
2023/01/18 07:07:11;;;;;;;9.88;5.53;;;1.50;1.00;;;;;;5041090;28;20227;-83
2023/01/18 07:09:38;;;;;;;7.68;5.55;;;;;;;;;;5041257;28;20232;-84
2023/01/18 07:12:07;;;;;;;8.40;4.80;;;;;;;;;;5050203;28;20212;-83
2023/01/18 07:14:34;;;;;;;10.15;5.18;;;;;;;;;;5039342;28;20693;-84
2023/01/18 07:17:01;;;;;;;11.10;5.10;;;;;;;;;;5040875;28;20235;-83
2023/01/18 07:19:28;;;;;;;11.88;5.70;;;;;;;;;;5042640;28;20208;-83
2023/01/18 07:21:56;;;;;;;10.98;6.03;;;;;;;;;;5044835;28;20733;-84
2023/01/18 07:24:23;;;;;;;4.68;4.18;;;;;;;;;;5046911;28;20196;-83
2023/01/18 07:26:50;;;;;;;9.10;4.13;;;;;;;;;;5050314;28;20227;-83
2023/01/18 07:29:19;;;;;;;5.85;4.22;;;;;;;;;;5052209;28;20204;-83
2023/01/18 07:31:46;;;;;;;7.55;4.00;;;;;;;;;;5051398;28;20274;-83
2023/01/18 07:34:13;;;;;;;8.75;4.75;;;-0.20;99.90;;;;;;5044731;28;20210;-84
2023/01/18 07:36:40;;;;;;;8.43;5.00;;;;;;;;;;5044275;28;20263;-83
2023/01/18 07:39:07;;;;;;;5.15;4.60;;;1.90;1.00;;;;;;5043726;28;20227;-84
2023/01/18 07:41:35;;;;;;;6.60;4.85;;;;;;;;;;5044614;28;20581;-83
2023/01/18 07:44:02;;;;;;;9.45;5.40;;;;;;;;;;5044147;28;20200;-83
2023/01/18 07:46:30;;;;;;;7.25;3.90;;;;;;;;;;5043418;28;20263;-83
2023/01/18 07:48:58;;;;;;;5.50;4.10;;;;;;;;;;5043435;28;20267;-83
2023/01/18 07:51:25;;;;;;;6.80;4.65;;;;;;;;;;5045031;28;20246;-82
2023/01/18 07:53:54;;;;;;;6.43;4.40;;;1.20;99.90;;;;;;5049804;28;20228;-83
2023/01/18 07:56:21;;;;;;;5.65;4.57;;;;;;;;;;5049538;28;20234;-82
2023/01/18 07:58:49;;;;;;;9.70;4.60;;;;;;;;;;5047176;28;20207;-81
2023/01/18 08:01:17;;;;;;;5.32;3.83;;;2.10;99.90;;;;;;5046470;28;20196;-83
2023/01/18 08:03:47;;;;;;;6.47;4.65;;;2.10;99.90;;;;;;5047934;28;20235;-83
2023/01/18 08:06:16;;;;;;;11.10;5.30;;;2.30;1.00;;;;;;5047686;28;20223;-83
2023/01/18 08:08:44;;;;;;;11.40;4.93;;;2.00;99.90;;;;;;5047928;28;20200;-84
2023/01/18 08:11:11;;;;;;;4.57;4.15;;;2.00;99.90;;;;;;5043965;28;20219;-84
2023/01/18 08:13:38;;;;;;;4.95;4.10;;;1.90;99.90;;;;;;5044549;28;20204;-85
2023/01/18 08:16:07;;;;;;;8.00;4.45;;;1.90;1.00;;;;;;5044223;28;20310;-84
2023/01/18 08:18:34;;;;;;;6.38;4.53;;;;;;;;;;5044842;28;20210;-84
2023/01/18 08:21:03;;;;;;;4.97;3.97;;;;;;;;;;5047679;28;20200;-84
2023/01/18 08:23:30;;;;;;;8.50;3.40;;;;;;;;;;5044936;28;20235;-84
2023/01/18 08:26:01;;;;;;;6.18;4.22;;;1.90;99.90;;;;;;5043911;28;20240;-84
2023/01/18 08:28:29;;;;;;;5.72;3.63;;;;;;;;;;5043036;28;20569;-85
2023/01/18 08:31:06;;;;;;;7.82;3.85;;;2.20;60.40;;;;;;5043330;28;20247;-84
2023/01/18 08:33:36;;;;;;;6.63;5.10;;;2.20;1.00;;;;;;5043019;28;20192;-85
2023/01/18 08:36:05;;;;;;;4.55;3.90;;;2.40;1.00;;;;;;5043397;28;20254;-84
2023/01/18 08:38:33;;;;;;;5.35;3.92;;;;;;;;;;5043596;28;20263;-84
2023/01/18 08:41:02;;;;;;;5.32;4.07;;;;;;;;;;5049109;28;20267;-84
2023/01/18 08:43:29;;;;;;;9.05;4.72;;;2.40;1.00;;;;;;5041197;28;20237;-84
2023/01/18 08:45:55;;;;;;;11.85;5.68;;;2.80;33.90;;;;;;5056080;22;20424;-83
2023/01/18 08:48:23;;;;;;;7.60;3.55;;;;;;;;;;5065949;28;20230;-84
2023/01/18 08:50:50;;;;;;;4.63;3.55;;;;;;;;;;5065191;28;20219;-84
2023/01/18 08:53:19;;;;;;;10.02;4.40;;;2.60;99.90;;;;;;5070790;28;20246;-85
2023/01/18 08:55:46;;;;;;;4.85;4.25;;;;;;;;;;5077311;28;20278;-82
2023/01/18 08:58:14;;;;;;;3.47;3.17;;;;;;;;;;5078193;28;20183;-80
2023/01/18 09:00:41;;;;;;;3.80;3.35;;;;;;;;;;5077988;28;20223;-81
2023/01/18 09:03:08;;;;;;;4.40;3.90;;;;;;;;;;5077646;28;20207;-84
2023/01/18 09:05:36;;;;;;;4.22;3.78;;;;;;;;;;5077686;28;20271;-82
2023/01/18 09:08:05;;;;;;;4.68;3.05;;;2.60;1.00;;;;;;5076915;28;20195;-83
2023/01/18 09:10:36;;;;;;;4.32;3.83;;;2.80;1.00;;;;;;5075963;28;20207;-83
2023/01/18 09:13:04;;;;;;;7.18;4.35;;;;;;;;;;5075103;28;20172;-81
2023/01/18 09:15:31;;;;;;;11.93;4.70;;;;;;;;;;5073001;28;20206;-85
2023/01/18 09:18:03;;;;;;;4.57;3.63;;;;;;;;;;5066055;28;20207;-83
2023/01/18 09:20:30;;;;;;;11.55;3.85;;;3.10;58.10;;;;;;5062978;28;20526;-83
2023/01/18 09:22:57;;;;;;;4.10;3.70;;;;;;;;;;5064031;28;20230;-85
2023/01/18 09:25:25;;;;;;;6.65;4.68;;;;;;;;;;5063133;28;20275;-85
2023/01/18 09:27:53;;;;;;;5.57;3.50;;;2.70;99.90;;;;;;5064078;28;20267;-84
2023/01/18 09:30:20;;;;;;;7.18;4.25;;;3.00;1.00;;;;;;5062009;28;20290;-84
2023/01/18 09:32:47;;;;;;;10.10;4.78;;;2.70;1.00;;;;;;5063301;28;20665;-84
2023/01/18 09:35:16;;;;;;;4.57;4.18;;;2.60;1.00;;;;;;5062315;28;20290;-84
2023/01/18 09:37:44;;;;;;;7.88;4.43;;;2.50;1.00;;;;;;5063896;28;20713;-84
2023/01/18 09:40:16;;;;;;;10.90;6.00;;;2.80;1.00;;;;;;5062925;28;20199;-85
2023/01/18 09:42:44;;;;;;;7.22;5.63;;;;;;;;;;5061813;28;20191;-84
2023/01/18 09:45:25;;;;;;;11.35;4.15;;;2.50;99.90;;;;;;5063109;28;20267;-84
2023/01/18 09:48:00;;;;;;;5.72;4.65;;;3.10;1.00;;;;;;5078079;28;20250;-82
2023/01/18 09:50:28;;;;;;;7.55;4.75;;;3.00;99.90;;;;;;5077528;28;20210;-82
2023/01/18 09:53:03;;;;;;;4.70;4.30;;;3.10;99.90;;;;;;5075224;28;20257;-83
2023/01/18 09:55:42;;;;;;;4.93;4.47;;;3.20;99.90;;;;;;5074770;28;20258;-83
2023/01/18 09:58:24;;;;;;;4.30;3.90;;;3.20;1.00;;;;;;5075752;28;20203;-83
2023/01/18 10:00:58;;;;;;;6.80;4.65;;;3.10;1.00;;;;;;5075406;28;20211;-84
2023/01/18 10:03:33;;;;;;;6.55;3.88;;;3.60;1.00;;;;;;5076627;28;20195;-84
2023/01/18 10:06:08;;;;;;;4.15;3.85;;;3.60;99.90;;;;;;5075591;28;20237;-84
2023/01/18 10:08:39;;;;;;;5.88;3.85;;;3.70;1.00;;;;;;5075722;28;20187;-83
2023/01/18 10:11:11;;;;;;;8.18;4.70;;;3.70;99.90;;;;;;5075996;28;20275;-84
2023/01/18 10:13:47;;;;;;;7.53;4.35;;;3.70;72.40;;;;;;5071807;28;20202;-84
2023/01/18 10:16:15;;;;;;;4.95;3.80;;;3.60;99.90;;;;;;5065351;28;20222;-83
2023/01/18 10:18:46;;;;;;;10.38;4.97;;;6.10;99.90;;;;;;5063704;28;20256;-84
2023/01/18 10:21:22;;;;;;;7.03;4.95;;;3.60;1.00;;;;;;5062083;28;20184;-84
2023/01/18 10:24:08;;;;;;;4.70;4.13;;;4.10;99.90;;;;;;5062931;28;20218;-84
2023/01/18 10:26:39;;;;;;;8.50;4.75;;;3.80;99.90;;;;;;5065127;28;20254;-84
2023/01/18 10:29:16;;;;;;;6.72;5.47;;;3.80;99.90;;;;;;5063013;28;20534;-84
2023/01/18 10:31:54;;;;;;;6.72;4.45;;;3.80;99.90;;;;;;5063021;28;20247;-84
2023/01/18 10:34:26;;;;;;;7.13;4.40;;;3.80;99.90;;;;;;5063422;28;20188;-83
2023/01/18 10:36:56;;;;;;;6.30;4.35;;;3.90;99.90;;;;;;5062835;28;20739;-84
2023/01/18 10:39:36;;;;;;;9.57;4.05;;;3.40;1.00;;;;;;5069721;28;20222;-83
2023/01/18 10:42:08;;;;;;;5.43;4.07;;;3.60;1.00;;;;;;5079274;28;20187;-81
2023/01/18 10:44:35;;;;;;;5.75;4.65;;;3.30;1.00;;;;;;5079065;28;20167;-84
2023/01/18 10:47:04;;;;;;;7.13;5.53;;;3.50;99.90;;;;;;5073813;28;20238;-82
2023/01/18 10:49:37;;;;;;;10.10;5.10;;;3.60;99.90;;;;;;5078849;28;20219;-81
2023/01/18 10:52:23;;;;;;;8.60;5.55;;;3.20;1.00;;;;;;5072288;28;20212;-83
2023/01/18 10:54:51;;;;;;;5.95;5.38;;;3.30;1.00;;;;;;5078279;28;20218;-83
2023/01/18 10:57:24;;;;;;;10.73;4.80;;;3.60;99.90;;;;;;5074684;28;20235;-84
2023/01/18 10:59:52;;;;;;;7.72;5.10;;;3.50;99.90;;;;;;5068466;28;20582;-84
2023/01/18 11:02:26;;;;;;;7.70;4.63;;;3.50;1.00;;;;;;5067528;28;20203;-83
2023/01/18 11:05:05;;;;;;;8.50;5.50;;;3.70;99.90;;;;;;5067582;28;20192;-84
2023/01/18 11:07:32;;;;;;;8.02;5.28;;;2.50;99.90;;;;;;5063874;28;20249;-84
2023/01/18 11:10:05;;;;;;;8.63;5.70;;;3.70;99.90;;;;;;5063080;28;20197;-84
2023/01/18 11:12:36;;;;;;;5.57;5.10;;;3.70;99.90;;;;;;5062806;28;20225;-84
2023/01/18 11:15:24;;;;;;;7.22;5.45;;;3.50;99.90;;;;;;5064924;28;20190;-84
2023/01/18 11:18:17;;;;;;;8.10;5.70;;;3.00;1.00;;;;;;5064003;28;20179;-84
2023/01/18 11:20:49;;;;;;;8.60;6.80;;;3.50;99.90;;;;;;5051788;28;20243;-84
2023/01/18 11:23:19;;;;;;;12.38;6.80;;;3.30;1.00;;;;;;5066529;28;20217;-83
2023/01/18 11:25:52;;;;;;;9.38;5.95;;;3.40;99.90;;;;;;5064908;28;20223;-84
2023/01/18 11:28:21;;;;;;;6.57;5.97;;;3.80;99.90;;;;;;5073227;28;20198;-83
2023/01/18 11:30:52;;;;;;;14.55;6.15;;;3.50;1.00;;;;;;5075088;28;20234;-83
2023/01/18 11:33:23;;;;;;;8.82;6.13;;;3.50;99.90;;;;;;5075919;28;20198;-81
2023/01/18 11:35:55;;;;;;;9.65;6.45;;;3.30;1.00;;;;;;5076368;28;20279;-83
2023/01/18 11:38:27;;;;;;;8.85;6.35;;;3.80;1.00;;;;;;5070824;28;20602;-83
2023/01/18 11:41:15;;;;;;;6.35;5.75;;;3.70;99.90;;;;;;5064875;28;20266;-82
2023/01/18 11:43:55;;;;;;;11.02;6.20;;;4.00;1.00;;;;;;5075156;28;20192;-83
2023/01/18 11:46:32;;;;;;;9.35;5.72;;;3.20;99.90;;;;;;5075001;28;20322;-81
2023/01/18 11:49:11;;;;;;;14.05;6.72;;;3.50;99.90;;;;;;5070737;28;20218;-84
2023/01/18 11:51:44;;;;;;;8.52;5.45;;;3.50;99.90;;;;;;5063674;28;20294;-84
2023/01/18 11:54:25;;;;;;;7.05;5.20;;;3.70;99.90;;;;;;5064183;28;20214;-82
2023/01/18 11:56:55;;;;;;;6.93;5.78;;;4.00;99.90;;;;;;5062618;28;20219;-82
2023/01/18 11:59:28;;;;;;;13.40;7.03;;;3.70;99.90;;;;;;5072154;28;20176;-82
2023/01/18 12:02:31;;;;;;;10.00;6.65;;;3.60;99.90;;;;;;5077981;28;20183;-82
2023/01/18 12:05:29;;;;;;;9.13;5.93;;;3.50;99.90;;;;;;5077713;28;20234;-84
2023/01/18 12:08:13;;;;;;;10.90;6.85;;;3.80;1.00;;;;;;5076853;28;20215;-84
2023/01/18 12:10:51;;;;;;;10.93;7.13;;;4.00;1.00;;;;;;5077109;28;20171;-84
2023/01/18 12:13:35;;;;;;;7.93;5.93;;;3.80;99.90;;;;;;5075713;28;20171;-83
2023/01/18 12:16:14;;;;;;;7.38;6.55;;;3.80;99.90;;;;;;5072839;28;20235;-84
2023/01/18 12:19:06;;;;;;;8.55;6.18;;;3.70;1.00;;;;;;5064552;28;20270;-85
2023/01/18 12:21:44;;;;;;;7.38;5.40;;;3.60;99.90;;;;;;5052397;28;20202;-84
2023/01/18 12:24:27;;;;;;;9.10;4.82;;;4.10;1.00;;;;;;5076318;28;20251;-83
2023/01/18 12:26:58;;;;;;;9.15;5.68;;;3.60;99.90;;;;;;5072544;28;20253;-84
2023/01/18 12:29:42;;;;;;;11.23;4.93;;;3.60;99.90;;;;;;5065245;28;20229;-84
2023/01/18 12:32:29;;;;;;;7.65;5.47;;;3.50;99.90;;;;;;5063151;28;20318;-84
2023/01/18 12:35:14;;;;;;;7.35;4.60;;;3.40;99.90;;;;;;5061232;28;20231;-83
2023/01/18 12:37:52;;;;;;;6.05;4.82;;;3.40;99.90;;;;;;5064916;28;20306;-82
2023/01/18 12:40:40;;;;;;;8.55;4.90;;;3.40;99.90;;;;;;5065704;28;20229;-84
2023/01/18 12:43:21;;;;;;;7.07;4.30;;;3.50;99.90;;;;;;5066547;28;20218;-82
2023/01/18 12:45:56;;;;;;;8.05;5.40;;;3.20;1.00;;;;;;5063323;28;20257;-82
2023/01/18 12:48:28;;;;;;;6.30;4.15;;;3.50;99.90;;;;;;5068380;28;20192;-83
2023/01/18 12:50:59;;;;;;;8.23;4.55;;;3.60;1.00;;;;;;5078070;28;20167;-82
2023/01/18 12:53:36;;;;;;;8.68;5.32;;;3.40;99.90;;;;;;5078366;28;20178;-80
2023/01/18 12:56:10;;;;;;;7.50;4.28;;;3.30;1.00;;;;;;5078409;28;20214;-82
2023/01/18 12:58:38;;;;;;;7.45;5.10;;;;;;;;;;5077648;28;20607;-82
2023/01/18 13:01:10;;;;;;;8.57;4.82;;;3.30;34.70;;;;;;5075930;28;20227;-83
2023/01/18 13:03:41;;;;;;;9.05;5.07;;;3.40;99.90;;;;;;5064497;28;20223;-85
2023/01/18 13:06:10;;;;;;;6.78;4.65;;;3.20;1.00;;;;;;5063925;28;20254;-85
2023/01/18 13:08:42;;;;;;;4.38;3.95;;;3.30;1.00;;;;;;5061658;28;20215;-85
2023/01/18 13:11:13;;;;;;;15.98;4.57;;;3.20;1.00;;;;;;5062456;28;20219;-82
2023/01/18 13:13:43;;;;;;;16.48;4.80;;;3.50;99.90;;;;;;5061109;28;20614;-83
2023/01/18 13:16:32;;;;;;;5.30;4.75;;;3.10;99.90;;;;;;5063901;28;20249;-82
2023/01/18 13:19:04;;;;;;;6.60;4.35;;;3.50;99.90;;;;;;5061819;28;20192;-83
2023/01/18 13:21:44;;;;;;;8.55;4.85;;;3.10;1.00;;;;;;5061160;28;20644;-84
2023/01/18 13:24:23;;;;;;;9.02;5.38;;;3.10;1.00;;;;;;5060844;28;20219;-84
2023/01/18 13:26:52;;;;;;;9.70;5.65;;;;;;;;;;5060489;28;20319;-83
2023/01/18 13:29:27;;;;;;;4.88;4.45;;;3.10;1.00;;;;;;5062869;28;20237;-82
2023/01/18 13:31:54;;;;;;;7.53;4.90;;;3.10;1.00;;;;;;5066289;28;20274;-82
2023/01/18 13:34:28;;;;;;;6.43;4.60;;;3.30;1.00;;;;;;5079481;28;20215;-83
2023/01/18 13:36:56;;;;;;;7.30;5.47;;;3.40;1.00;;;;;;5079899;28;20223;-82
2023/01/18 13:39:26;;;;;;;8.07;5.15;;;3.00;99.90;;;;;;5080083;28;20230;-81
2023/01/18 13:42:32;;;;;;;7.47;5.57;;;3.20;1.00;;;;;;5079834;28;20199;-81
2023/01/18 13:45:16;;;;;;;7.35;5.15;;;3.30;1.00;;;;;;5072936;28;20249;-84
2023/01/18 13:47:58;;;;;;;6.50;5.13;;;3.30;1.00;;;;;;5066328;28;20231;-84
2023/01/18 13:50:51;;;;;;;7.65;5.75;;;3.40;1.00;;;;;;5068277;28;20206;-84
2023/01/18 13:53:23;;;;;;;6.45;4.97;;;3.40;99.90;;;;;;5068739;28;20221;-82
2023/01/18 13:56:33;;;;;;;5.80;4.32;;;3.60;1.00;;;;;;5074309;28;20223;-79
2023/01/18 13:59:18;;;;;;;5.97;4.93;;;3.30;99.90;;;;;;5065817;28;20188;-80
2023/01/18 14:01:48;;;;;;;8.57;5.05;;;3.40;1.00;;;;;;5072069;28;20243;-81
2023/01/18 14:04:26;;;;;;;6.10;4.97;;;2.90;19.50;;;;;;5079876;28;20205;-83
2023/01/18 14:06:55;;;;;;;8.00;6.25;;;3.30;99.90;;;;;;5075328;28;20258;-84
2023/01/18 14:09:35;;;;;;;15.13;6.68;;;3.10;1.00;;;;;;5067641;28;20225;-84
2023/01/18 14:12:03;;;;;;;8.50;5.10;;;3.10;33.60;;;;;;5073407;28;20199;-83